Aeroporto :
LOGIN :

Iscrizione | Disclaimer

   EN    FR    IT 

 










Sommario :    VFR   VFR Marginale   IFR   IFR Intensivo   IFR Molto Intensivo
Visibilità : 
Base nubi : 
>= 8 km
>= 3000ft
5 / 8 km
1000 / 3000 ft
1500m / 5 km
500 / 1000 ft
800 / 1500m
200 / 500 ft
< 800m
< 200 ft
Simboli :   Temporali  Nebbia  Neve Forte  Precipitazioni Forti  Vento > 20 kt
SIGMETs :   Varie  Temporali  Ghiacco  Turbolenza  Onda orograficha  Ceneri Vulcaniche







- Altitudine del aeroporto : 1302 ft
- Codice IATA : GNB
- Carte del aeroporto


LFLS - Grenoble / St. Geoirs

ULTIMO METAR :
  • 230930Z AUTO 33007KT 260V020 CAVOK 24/14 Q1017 NOSIG

METARs OBSOLETI :
  • 230900Z AUTO VRB04KT CAVOK 24/14 Q1017 NOSIG
  • 230830Z AUTO VRB03KT CAVOK 23/15 Q1017 NOSIG
  • 230800Z AUTO 33004KT 270V070 CAVOK 22/14 Q1017 NOSIG
  • 230730Z AUTO VRB02KT CAVOK 21/14 Q1017 NOSIG
  • 230700Z AUTO 28004KT 250V310 CAVOK 20/14 Q1017 NOSIG

TAF TAF LFLS
Valido dal 23 a 09 ore il 24 a 09 ore UTC


230800Z 2309/2409 36008KT CAVOK
BECMG 2320/2323 VRB02KT
ATIS : +33 4 76 65 55 89
Nessun NOTAM noto per questo aeroporto.



MetMap, La meteo Aeronautica in un colpo d'occhio ! - Copyright ORBIFLY Dicembre 2007 - Disclaimer

ORBIFLY MET'MAP TEAM :

Programmazione e sviluppo : Alexandra Zaïnal
Concezione e sviluppo : Baudouin d'Aumeries
Co-Programmazione e sviluppo : Marc-Olivier Méhu
Supporto tecnico e logistico : Manuel Goepfert
Aiuto per la traduzione : Arnaldo La Scala

Contatto : metmap@orbifly.com




FONTI E CREDITI :

   NOAA